Time;durP1;ratioP1;P1;durP2;ratioP2;P2;SDS_P1;SDS_P2;PMS_P1;PMS_P2;Temp;Humidity;BMP_temperature;BMP_pressure;BME280_temperature;BME280_humidity;BME280_pressure;Samples;Min_cycle;Max_cycle;Signal;HPM_P1;HPM_P2
2023/05/06 00:02:34;;;;;;;40.67;25.57;;;10.10;99.90;;;;;;2614409;54;20415;-80
2023/05/06 00:08:21;;;;;;;40.80;24.70;;;9.90;99.90;;;;;;2615639;39;20556;-81
2023/05/06 00:14:09;;;;;;;40.13;25.37;;;10.00;99.90;;;;;;2615983;54;20147;-80
2023/05/06 00:19:57;;;;;;;39.60;26.40;;;9.80;99.90;;;;;;2614881;54;20127;-81
2023/05/06 00:25:45;;;;;;;38.97;23.93;;;9.80;99.90;;;;;;2613877;54;20399;-78
2023/05/06 00:31:33;;;;;;;42.13;26.50;;;9.90;99.90;;;;;;2614812;54;20127;-81
2023/05/06 00:41:23;;;;;;;42.50;24.90;;;9.60;99.90;;;;;;2614860;54;20534;-81
2023/05/06 00:47:11;;;;;;;44.83;27.80;;;9.80;99.90;;;;;;2615293;54;20541;-82
2023/05/06 00:53:01;;;;;;;48.53;26.00;;;9.80;99.90;;;;;;2614992;54;20155;-82
2023/05/06 00:58:49;;;;;;;43.20;27.00;;;9.80;99.90;;;;;;2614919;54;20414;-81
2023/05/06 01:04:37;;;;;;;44.73;27.33;;;9.70;99.90;;;;;;2618834;54;20396;-79
2023/05/06 01:16:53;;;;;;;39.30;25.13;;;9.50;99.90;;;;;;2615983;54;20399;-80
2023/05/06 01:22:42;;;;;;;38.07;25.60;;;9.40;99.90;;;;;;2616368;39;20745;-82
2023/05/06 01:28:30;;;;;;;36.33;24.47;;;9.40;99.90;;;;;;2615906;39;20783;-82
2023/05/06 01:43:57;;;;;;;42.10;24.93;;;9.20;99.90;;;;;;2616199;54;20407;-82
2023/05/06 01:49:46;;;;;;;39.90;24.53;;;8.90;99.90;;;;;;2616668;39;20798;-82
2023/05/06 01:55:34;;;;;;;43.07;24.70;;;8.80;99.90;;;;;;2615829;54;20387;-82
2023/05/06 02:01:22;;;;;;;37.27;24.50;;;8.80;99.90;;;;;;2615353;54;20182;-81
2023/05/06 02:07:10;;;;;;;31.00;22.43;;;8.70;99.90;;;;;;2615984;54;20143;-83
2023/05/06 02:12:57;;;;;;;36.87;24.50;;;8.60;99.90;;;;;;2616192;54;20434;-81
2023/05/06 02:18:45;;;;;;;37.63;23.63;;;8.60;99.90;;;;;;2615400;54;20139;-82
2023/05/06 02:24:33;;;;;;;39.50;24.47;;;8.70;99.90;;;;;;2617499;54;20130;-82
2023/05/06 02:30:21;;;;;;;48.80;26.40;;;8.40;99.90;;;;;;2615787;54;20150;-82
2023/05/06 02:36:08;;;;;;;36.20;22.87;;;8.40;99.90;;;;;;2616081;54;20153;-82
2023/05/06 02:38:53;;;;;;;46.03;25.00;;;8.30;99.90;;;;;;2616953;54;20970;-82
2023/05/06 02:41:20;;;;;;;37.53;22.77;;;8.30;99.90;;;;;;2616798;54;20166;-82
2023/05/06 02:47:08;;;;;;;33.93;24.10;;;8.20;99.90;;;;;;2615849;54;20953;-81
2023/05/06 02:52:55;;;;;;;42.03;23.27;;;8.50;99.90;;;;;;2614163;54;20384;-86
2023/05/06 02:58:43;;;;;;;41.77;24.17;;;8.50;99.90;;;;;;2615760;39;20562;-81
2023/05/06 03:04:31;;;;;;;39.27;22.60;;;8.30;99.90;;;;;;2615310;54;20242;-83
2023/05/06 03:10:19;;;;;;;40.20;21.47;;;8.20;99.90;;;;;;2614376;54;20165;-82
2023/05/06 03:16:14;;;;;;;35.50;23.13;;;8.10;99.90;;;;;;2615593;54;20407;-80
2023/05/06 03:22:03;;;;;;;28.63;20.90;;;8.00;99.90;;;;;;2615000;54;20423;-80
2023/05/06 03:27:52;;;;;;;35.53;21.10;;;7.90;99.90;;;;;;2614708;54;20139;-81
2023/05/06 03:33:40;;;;;;;39.60;23.93;;;8.00;99.90;;;;;;2616028;39;20770;-81
2023/05/06 03:43:27;;;;;;;41.53;23.60;;;8.20;99.90;;;;;;2615463;54;20384;-79
2023/05/06 03:49:15;;;;;;;41.63;22.73;;;7.90;99.90;;;;;;2616218;54;20371;-80
2023/05/06 03:55:03;;;;;;;46.97;23.60;;;7.80;99.90;;;;;;2615979;54;20122;-79
2023/05/06 04:00:50;;;;;;;42.33;25.40;;;7.80;99.90;;;;;;2615432;54;20411;-80
2023/05/06 04:06:38;;;;;;;45.40;25.90;;;7.80;99.90;;;;;;2615649;54;20154;-80
2023/05/06 04:12:26;;;;;;;39.43;23.37;;;7.80;99.90;;;;;;2615609;54;20150;-80
2023/05/06 04:18:17;;;;;;;52.20;26.37;;;7.80;99.90;;;;;;2616165;54;20239;-80
2023/05/06 04:24:05;;;;;;;47.20;26.80;;;8.00;99.90;;;;;;2616163;54;20592;-81
2023/05/06 04:29:53;;;;;;;45.67;26.27;;;8.10;99.90;;;;;;2616731;54;20423;-81
2023/05/06 04:38:58;;;;;;;47.13;26.40;;;8.20;99.90;;;;;;2616662;54;21314;-81
2023/05/06 04:41:24;;;;;;;46.57;27.70;;;8.30;99.90;;;;;;2616087;39;20819;-82
2023/05/06 04:47:12;;;;;;;53.03;27.20;;;8.40;99.90;;;;;;2617090;54;20444;-81
2023/05/06 04:53:00;;;;;;;52.23;28.37;;;8.60;99.90;;;;;;2615889;54;20395;-82
2023/05/06 04:56:03;;;;;;;67.87;31.67;;;8.80;99.90;;;;;;2616522;46;20519;-82
2023/05/06 04:58:29;;;;;;;59.83;30.27;;;8.90;99.90;;;;;;2615847;47;20174;-82
2023/05/06 05:04:18;;;;;;;49.20;28.83;;;9.20;99.90;;;;;;2612521;54;20134;-81
2023/05/06 05:10:08;;;;;;;53.07;30.60;;;9.50;99.90;;;;;;2612520;54;20395;-82
2023/05/06 05:15:56;;;;;;;57.33;30.67;;;9.70;99.90;;;;;;2613445;54;20512;-81
2023/05/06 05:21:44;;;;;;;58.97;31.40;;;10.20;99.90;;;;;;2612074;54;20154;-82
2023/05/06 05:27:32;;;;;;;51.37;29.40;;;10.40;99.90;;;;;;2613219;54;20139;-82
2023/05/06 05:33:19;;;;;;;48.10;27.47;;;10.90;99.90;;;;;;2614335;54;20165;-81
2023/05/06 05:43:30;;;;;;;37.97;26.67;;;12.20;99.90;;;;;;2612950;39;20837;-80
2023/05/06 05:49:18;;;;;;;40.53;28.37;;;12.70;99.90;;;;;;2613347;54;20422;-85
2023/05/06 05:55:06;;;;;;;40.20;26.13;;;13.30;99.90;;;;;;2616530;54;20151;-84
2023/05/06 06:00:55;;;;;;;31.80;25.00;;;13.70;99.90;;;;;;2615746;54;20411;-86
2023/05/06 06:13:12;;;;;;;27.40;23.90;;;14.20;99.90;;;;;;2615820;54;20382;-81
2023/05/06 06:19:00;;;;;;;29.70;26.60;;;14.50;99.90;;;;;;2625352;54;20171;-80
2023/05/06 06:24:47;;;;;;;29.37;22.83;;;14.60;99.90;;;;;;2623472;54;20155;-80
2023/05/06 06:30:35;;;;;;;25.50;22.80;;;14.70;99.90;;;;;;2623515;54;20135;-81
2023/05/06 06:36:22;;;;;;;33.10;23.97;;;15.20;99.90;;;;;;2623064;54;20984;-81
2023/05/06 06:38:58;;;;;;;26.27;23.50;;;15.10;99.90;;;;;;2624366;54;20463;-81
2023/05/06 06:41:25;;;;;;;24.40;21.90;;;15.30;99.90;;;;;;2625734;54;20234;-80
2023/05/06 06:47:13;;;;;;;22.87;20.67;;;15.80;99.90;;;;;;2619861;54;20383;-82
2023/05/06 06:53:02;;;;;;;23.90;21.50;;;16.40;99.90;;;;;;2621158;39;20507;-82
2023/05/06 06:58:51;;;;;;;21.57;19.67;;;16.50;99.90;;;;;;2618158;54;20402;-81
2023/05/06 07:04:39;;;;;;;20.93;18.93;;;16.80;99.90;;;;;;2619102;54;20391;-82
2023/05/06 07:10:27;;;;;;;19.40;17.80;;;17.70;99.90;;;;;;2618435;54;20259;-84
2023/05/06 07:16:15;;;;;;;18.00;16.50;;;17.80;99.90;;;;;;2619249;54;20151;-81
2023/05/06 07:22:03;;;;;;;15.70;14.40;;;17.80;99.90;;;;;;2620263;54;20122;-82
2023/05/06 07:27:51;;;;;;;21.17;16.60;;;18.80;99.90;;;;;;2615682;54;20157;-82
2023/05/06 07:33:39;;;;;;;16.37;14.87;;;18.20;99.90;;;;;;2616319;54;20203;-80
2023/05/06 07:43:26;;;;;;;16.40;14.90;;;19.00;99.90;;;;;;2615343;54;20426;-80
2023/05/06 07:45:51;;;;;;;17.27;15.97;;;18.10;99.90;;;;;;2614856;54;20392;-79
2023/05/06 07:51:41;;;;;;;20.57;18.70;;;20.00;99.90;;;;;;2615583;54;20147;-80
2023/05/06 07:57:29;;;;;;;18.50;16.93;;;19.40;99.90;;;;;;2615907;54;20516;-80
2023/05/06 08:03:17;;;;;;;16.07;14.67;;;19.70;99.90;;;;;;2614243;54;20146;-80
2023/05/06 08:09:04;;;;;;;15.43;14.13;;;20.40;99.90;;;;;;2615440;54;20151;-80
2023/05/06 08:14:53;;;;;;;14.17;13.17;;;20.40;99.90;;;;;;2615624;54;20458;-82
2023/05/06 08:20:41;;;;;;;14.50;13.47;;;19.60;99.90;;;;;;2614172;54;20917;-82
2023/05/06 08:26:29;;;;;;;15.53;14.23;;;20.10;99.90;;;;;;2615292;54;20138;-80
2023/05/06 08:32:17;;;;;;;15.67;14.57;;;20.20;99.90;;;;;;2615660;54;20147;-82
2023/05/06 08:38:04;;;;;;;15.93;14.83;;;20.10;99.90;;;;;;2614663;54;20158;-80
2023/05/06 08:43:54;;;;;;;16.27;15.17;;;19.60;99.90;;;;;;2613509;39;20507;-80
2023/05/06 08:47:16;;;;;;;15.20;14.20;;;21.00;99.90;;;;;;2613610;54;20431;-79
2023/05/06 08:53:03;;;;;;;14.60;13.40;;;20.60;99.90;;;;;;2609353;54;20439;-82
2023/05/06 08:58:52;;;;;;;13.97;13.03;;;21.00;99.90;;;;;;2612726;54;20142;-80
2023/05/06 09:04:41;;;;;;;12.80;11.80;;;20.00;99.90;;;;;;2611595;54;20390;-82
2023/05/06 09:16:51;;;;;;;12.43;11.63;;;20.70;91.30;;;;;;2615905;54;20459;-81
2023/05/06 09:22:39;;;;;;;12.27;11.47;;;20.80;95.30;;;;;;2617437;54;20419;-81
2023/05/06 09:28:31;;;;;;;11.00;10.40;;;21.50;82.60;;;;;;2620184;54;20432;-83
2023/05/06 09:34:21;;;;;;;12.50;11.70;;;22.90;62.50;;;;;;2628043;54;20367;-84
2023/05/06 09:40:09;;;;;;;12.20;11.50;;;20.70;76.10;;;;;;2627270;54;20415;-83
2023/05/06 09:42:44;;;;;;;13.10;12.27;;;21.20;73.60;;;;;;2626427;54;20419;-82
2023/05/06 09:45:10;;;;;;;11.50;11.00;;;21.90;72.50;;;;;;2626050;47;20423;-83
2023/05/06 09:50:58;;;;;;;12.07;11.37;;;22.00;62.30;;;;;;2628771;54;20367;-81
2023/05/06 09:56:47;;;;;;;11.50;10.90;;;21.70;55.30;;;;;;2626298;54;20171;-82
2023/05/06 10:02:35;;;;;;;12.03;11.00;;;22.20;49.30;;;;;;2618523;54;20962;-82
2023/05/06 10:08:25;;;;;;;10.70;10.20;;;22.50;38.20;;;;;;2614614;54;20932;-82
2023/05/06 10:14:13;;;;;;;11.37;10.77;;;22.60;33.00;;;;;;2614900;54;20374;-81
2023/05/06 10:20:03;;;;;;;11.53;10.93;;;22.90;31.00;;;;;;2615192;54;20992;-82
2023/05/06 10:29:09;;;;;;;11.70;10.80;;;23.20;29.20;;;;;;2615711;54;20427;-82
2023/05/06 10:37:50;;;;;;;11.37;10.60;;;22.60;31.80;;;;;;2614874;54;20399;-81
2023/05/06 10:47:16;;;;;;;10.70;10.20;;;23.10;26.50;;;;;;2615188;54;20362;-82
2023/05/06 10:53:04;;;;;;;10.73;10.33;;;23.10;23.90;;;;;;2615773;54;20499;-80
2023/05/06 10:56:08;;;;;;;11.07;10.57;;;23.30;27.50;;;;;;2615940;54;20970;-82
2023/05/06 10:58:35;;;;;;;11.37;10.77;;;22.60;25.00;;;;;;2615555;54;20146;-82
2023/05/06 11:04:24;;;;;;;10.60;10.10;;;22.70;28.40;;;;;;2616601;54;20370;-81
2023/05/06 11:10:12;;;;;;;10.90;10.40;;;21.90;31.40;;;;;;2615529;54;20399;-82
2023/05/06 11:16:01;;;;;;;11.27;10.37;;;22.00;29.60;;;;;;2615982;54;20138;-82
2023/05/06 11:21:56;;;;;;;11.10;10.60;;;22.30;27.90;;;;;;2614920;47;20448;-81
2023/05/06 11:27:44;;;;;;;12.20;11.60;;;22.70;20.20;;;;;;2615063;54;20391;-81
2023/05/06 11:33:34;;;;;;;11.97;11.30;;;22.90;19.90;;;;;;2616105;54;20158;-82
2023/05/06 11:39:24;;;;;;;11.80;11.10;;;23.60;15.40;;;;;;2616402;54;21263;-82
2023/05/06 11:42:44;;;;;;;11.10;10.30;;;22.60;17.00;;;;;;2616580;54;20431;-82
2023/05/06 11:45:11;;;;;;;10.87;10.37;;;24.00;17.90;;;;;;2616870;54;20443;-82
2023/05/06 11:50:58;;;;;;;11.13;10.63;;;24.60;14.20;;;;;;2615379;54;20395;-82
2023/05/06 11:56:49;;;;;;;10.57;10.07;;;23.00;19.10;;;;;;2615179;39;20748;-81
2023/05/06 12:02:37;;;;;;;11.03;10.50;;;22.20;18.50;;;;;;2614988;54;20431;-82
2023/05/06 12:08:35;;;;;;;10.90;10.03;;;23.80;13.20;;;;;;2614720;54;20139;-82
2023/05/06 12:14:23;;;;;;;12.23;11.20;;;23.40;15.80;;;;;;2613450;54;20435;-82
2023/05/06 12:20:11;;;;;;;11.60;11.10;;;21.70;19.80;;;;;;2614158;39;21226;-82
2023/05/06 12:26:02;;;;;;;11.27;10.77;;;22.60;17.80;;;;;;2614138;54;20379;-83
2023/05/06 12:38:31;;;;;;;10.63;10.07;;;23.40;15.90;;;;;;2615536;39;21000;-82
2023/05/06 12:47:51;;;;;;;11.00;10.60;;;24.30;13.50;;;;;;2625709;54;20407;-81
2023/05/06 12:53:40;;;;;;;11.40;10.80;;;24.10;13.60;;;;;;2623080;54;20418;-82
2023/05/06 12:59:28;;;;;;;11.67;10.70;;;24.10;11.80;;;;;;2622021;54;20135;-82
2023/05/06 13:05:16;;;;;;;11.50;10.90;;;24.70;11.60;;;;;;2625354;54;20150;-83
2023/05/06 13:11:05;;;;;;;11.73;11.23;;;24.30;9.90;;;;;;2624639;54;20162;-83
2023/05/06 13:16:53;;;;;;;11.40;10.87;;;24.30;10.70;;;;;;2624753;54;20476;-82
2023/05/06 13:22:41;;;;;;;11.80;11.10;;;24.00;12.10;;;;;;2621963;54;20411;-82
2023/05/06 13:28:30;;;;;;;11.87;11.30;;;24.40;7.70;;;;;;2620356;54;20134;-81
2023/05/06 13:34:18;;;;;;;11.87;11.37;;;24.30;11.60;;;;;;2618042;54;20435;-82
2023/05/06 13:40:07;;;;;;;11.30;10.80;;;25.80;7.30;;;;;;2618127;54;20126;-83
2023/05/06 13:49:30;;;;;;;11.50;11.00;;;24.10;7.80;;;;;;2617375;54;20383;-83
2023/05/06 13:55:18;;;;;;;11.20;10.60;;;23.60;10.10;;;;;;2615363;54;20154;-83
2023/05/06 14:01:06;;;;;;;11.67;10.90;;;23.40;9.60;;;;;;2615066;54;20151;-82
2023/05/06 14:06:54;;;;;;;12.40;11.80;;;24.00;10.60;;;;;;2616283;54;20980;-83
2023/05/06 14:12:41;;;;;;;12.07;11.30;;;23.50;9.80;;;;;;2616866;54;20400;-81
2023/05/06 14:18:30;;;;;;;11.60;11.10;;;24.10;8.40;;;;;;2618522;54;20977;-83
2023/05/06 14:24:18;;;;;;;10.67;10.27;;;23.40;8.60;;;;;;2620922;54;20480;-82
2023/05/06 14:30:06;;;;;;;12.10;11.50;;;22.40;11.40;;;;;;2620681;54;20210;-81
2023/05/06 14:35:54;;;;;;;12.63;11.97;;;22.40;12.70;;;;;;2622990;54;20435;-83
2023/05/06 14:41:43;;;;;;;12.27;11.70;;;22.50;12.30;;;;;;2619041;54;20158;-83
2023/05/06 14:47:31;;;;;;;12.00;11.50;;;22.60;12.20;;;;;;2617982;54;21061;-83
2023/05/06 14:53:20;;;;;;;12.57;11.77;;;22.30;11.20;;;;;;2616225;54;20475;-86
2023/05/06 14:59:08;;;;;;;12.27;11.70;;;22.20;13.80;;;;;;2615354;39;20570;-82
2023/05/06 15:04:55;;;;;;;13.03;12.27;;;21.90;15.30;;;;;;2617619;54;20713;-83
2023/05/06 15:10:43;;;;;;;12.73;12.17;;;22.00;15.80;;;;;;2617100;54;20189;-82
2023/05/06 15:16:31;;;;;;;12.50;11.83;;;21.70;16.40;;;;;;2616390;54;20391;-83
2023/05/06 15:22:19;;;;;;;12.60;11.90;;;21.70;17.70;;;;;;2617512;54;20170;-81
2023/05/06 15:28:07;;;;;;;12.30;11.70;;;21.50;22.00;;;;;;2614162;39;20571;-81
2023/05/06 15:33:55;;;;;;;13.30;12.60;;;21.80;23.80;;;;;;2615079;54;20170;-82
2023/05/06 15:39:42;;;;;;;13.40;12.70;;;21.70;23.60;;;;;;2614782;54;20130;-82
2023/05/06 15:43:07;;;;;;;12.93;12.33;;;21.20;21.80;;;;;;2616416;54;20949;-82
2023/05/06 15:45:34;;;;;;;13.97;13.10;;;21.50;21.90;;;;;;2615419;54;20159;-84
2023/05/06 15:51:21;;;;;;;14.00;13.30;;;21.60;22.60;;;;;;2613179;54;21206;-82
2023/05/06 15:57:09;;;;;;;14.67;13.17;;;21.50;22.30;;;;;;2616409;54;20162;-81
2023/05/06 16:02:57;;;;;;;12.97;12.20;;;20.80;27.70;;;;;;2614869;54;20122;-82
2023/05/06 16:08:45;;;;;;;11.93;11.33;;;19.60;69.80;;;;;;2615079;54;20130;-82
2023/05/06 16:14:33;;;;;;;9.87;9.37;;;18.60;99.90;;;;;;2617209;54;20131;-82
2023/05/06 16:20:21;;;;;;;8.17;7.47;;;18.10;99.90;;;;;;2617959;39;20538;-80
2023/05/06 16:26:09;;;;;;;8.77;8.23;;;18.00;99.90;;;;;;2617659;39;20583;-80
2023/05/06 16:31:56;;;;;;;9.73;9.17;;;17.90;99.90;;;;;;2616805;54;20157;-81
2023/05/06 16:37:44;;;;;;;7.30;6.90;;;17.70;99.90;;;;;;2615608;54;20130;-83
2023/05/06 16:53:45;;;;;;;8.37;7.87;;;17.60;99.90;;;;;;2614551;54;21224;-81
2023/05/06 16:56:48;;;;;;;7.80;7.30;;;17.60;99.90;;;;;;2615149;54;20419;-82
2023/05/06 16:59:14;;;;;;;12.13;11.13;;;17.60;99.90;;;;;;2615010;39;20908;-79
2023/05/06 17:05:01;;;;;;;7.67;7.27;;;17.70;99.90;;;;;;2614521;54;20172;-79
2023/05/06 17:10:48;;;;;;;7.30;6.90;;;17.60;99.90;;;;;;2615218;54;20160;-80
2023/05/06 17:16:36;;;;;;;31.60;28.67;;;17.60;99.90;;;;;;2615264;54;20130;-80
2023/05/06 17:22:24;;;;;;;7.70;7.20;;;17.30;99.90;;;;;;2614418;46;20414;-80
2023/05/06 17:28:11;;;;;;;8.10;7.43;;;17.60;99.90;;;;;;2616244;46;20402;-82
2023/05/06 17:33:59;;;;;;;7.63;7.23;;;17.50;99.90;;;;;;2617262;54;20134;-81
2023/05/06 17:39:47;;;;;;;8.50;8.00;;;17.40;99.90;;;;;;2615487;54;20419;-81
2023/05/06 17:43:08;;;;;;;8.17;7.77;;;17.40;99.90;;;;;;2614499;54;20427;-81
2023/05/06 17:45:34;;;;;;;7.67;7.27;;;17.40;99.90;;;;;;2615712;54;20751;-82
2023/05/06 17:51:23;;;;;;;7.80;7.30;;;17.20;99.90;;;;;;2616133;54;20391;-83
2023/05/06 17:57:11;;;;;;;8.80;8.20;;;17.20;99.90;;;;;;2615179;54;20651;-82
2023/05/06 18:02:59;;;;;;;8.57;8.00;;;17.30;99.90;;;;;;2615894;54;20126;-82
2023/05/06 18:08:47;;;;;;;9.37;8.20;;;17.30;99.90;;;;;;2616472;54;20423;-81
2023/05/06 18:14:35;;;;;;;8.27;7.67;;;17.30;99.90;;;;;;2615888;54;20129;-82
2023/05/06 18:20:23;;;;;;;8.43;7.83;;;17.20;99.90;;;;;;2616003;54;20125;-82
2023/05/06 18:26:11;;;;;;;9.07;8.47;;;17.30;99.90;;;;;;2615297;54;20235;-81
2023/05/06 18:31:59;;;;;;;9.33;8.73;;;17.20;99.90;;;;;;2615177;54;20183;-82
2023/05/06 18:37:47;;;;;;;8.10;7.50;;;17.00;99.90;;;;;;2615944;54;20475;-81
2023/05/06 18:47:36;;;;;;;7.43;6.80;;;16.70;99.90;;;;;;2615545;54;21005;-82
2023/05/06 18:53:24;;;;;;;8.20;7.70;;;16.60;99.90;;;;;;2615277;54;20941;-81
2023/05/06 18:59:12;;;;;;;7.97;7.40;;;16.60;99.90;;;;;;2613525;54;20127;-82
2023/05/06 19:05:00;;;;;;;8.50;7.90;;;16.60;99.90;;;;;;2614699;54;20154;-81
2023/05/06 19:10:48;;;;;;;7.20;6.60;;;16.50;99.90;;;;;;2614756;54;20671;-82
2023/05/06 19:16:37;;;;;;;10.87;9.13;;;16.50;99.90;;;;;;2614673;54;20130;-82
2023/05/06 19:22:25;;;;;;;9.13;8.20;;;16.40;99.90;;;;;;2615001;54;20399;-81
2023/05/06 19:28:12;;;;;;;8.70;8.10;;;16.40;99.90;;;;;;2615278;54;20656;-80
2023/05/06 19:34:00;;;;;;;9.60;8.87;;;16.40;99.90;;;;;;2615378;54;20150;-81
2023/05/06 19:39:48;;;;;;;8.17;7.60;;;16.30;99.90;;;;;;2612695;54;20394;-81
2023/05/06 19:43:08;;;;;;;8.27;7.67;;;16.30;99.90;;;;;;2613635;54;20415;-82
2023/05/06 19:45:34;;;;;;;10.17;9.40;;;16.20;99.90;;;;;;2613412;54;20444;-82
2023/05/06 19:51:22;;;;;;;8.03;7.37;;;16.20;99.90;;;;;;2614452;54;20272;-80
2023/05/06 19:57:09;;;;;;;8.43;7.63;;;16.10;99.90;;;;;;2611910;54;20166;-79
2023/05/06 20:02:59;;;;;;;8.87;8.17;;;16.00;99.90;;;;;;2617151;54;20134;-80
2023/05/06 20:08:47;;;;;;;9.73;9.03;;;16.00;99.90;;;;;;2617658;54;21020;-82
2023/05/06 20:14:35;;;;;;;11.60;8.13;;;16.00;99.90;;;;;;2617764;54;20178;-80
2023/05/06 20:20:32;;;;;;;9.97;8.23;;;15.90;99.90;;;;;;2613902;54;20398;-78
2023/05/06 20:26:21;;;;;;;9.13;8.27;;;15.80;99.90;;;;;;2612922;54;20384;-79
2023/05/06 20:32:11;;;;;;;9.87;8.40;;;15.70;99.90;;;;;;2610459;54;20399;-79
2023/05/06 20:38:00;;;;;;;10.23;9.43;;;15.70;99.90;;;;;;2611569;54;20426;-80
2023/05/06 20:47:38;;;;;;;10.07;8.67;;;15.50;99.90;;;;;;2610810;54;20470;-79
2023/05/06 20:53:26;;;;;;;12.50;9.97;;;15.50;99.90;;;;;;2609110;54;20383;-79
2023/05/06 20:59:15;;;;;;;11.57;10.67;;;15.50;99.90;;;;;;2608031;54;20183;-79
2023/05/06 21:05:04;;;;;;;12.50;10.27;;;15.40;99.90;;;;;;2608204;54;20391;-80
2023/05/06 21:10:52;;;;;;;12.57;11.33;;;15.50;99.90;;;;;;2609558;54;20431;-79
2023/05/06 21:16:40;;;;;;;12.30;11.20;;;15.40;99.90;;;;;;2614185;54;20126;-80
2023/05/06 21:22:28;;;;;;;12.23;11.23;;;15.30;99.90;;;;;;2611036;54;20166;-79
2023/05/06 21:28:16;;;;;;;12.30;11.20;;;15.40;99.90;;;;;;2609336;54;20139;-80
2023/05/06 21:34:06;;;;;;;12.30;11.30;;;15.30;99.90;;;;;;2611670;54;21026;-79
2023/05/06 21:39:54;;;;;;;13.50;12.30;;;15.30;99.90;;;;;;2611445;54;20387;-79
2023/05/06 21:45:43;;;;;;;12.20;11.13;;;15.20;99.90;;;;;;2607520;54;20185;-79
2023/05/06 21:51:33;;;;;;;14.50;12.00;;;15.10;99.90;;;;;;2609085;54;20395;-79
2023/05/06 21:57:21;;;;;;;11.57;10.57;;;15.20;99.90;;;;;;2607971;54;20414;-79
2023/05/06 22:03:09;;;;;;;12.03;10.90;;;15.20;99.90;;;;;;2609057;54;20407;-79
2023/05/06 22:08:56;;;;;;;12.33;11.17;;;15.20;99.90;;;;;;2609554;54;20166;-78
2023/05/06 22:14:44;;;;;;;13.23;12.13;;;15.20;99.90;;;;;;2611572;54;20130;-80
2023/05/06 22:20:33;;;;;;;15.00;13.80;;;15.10;99.90;;;;;;2607877;54;20391;-80
2023/05/06 22:26:21;;;;;;;12.20;11.13;;;15.00;99.90;;;;;;2609071;54;20419;-80
2023/05/06 22:32:09;;;;;;;12.13;10.83;;;15.00;99.90;;;;;;2610231;54;20446;-79
2023/05/06 22:37:57;;;;;;;12.73;11.53;;;14.90;99.90;;;;;;2608973;54;20158;-79
2023/05/06 22:43:45;;;;;;;11.70;10.53;;;14.70;99.90;;;;;;2609515;54;20134;-80
2023/05/06 22:46:48;;;;;;;13.70;12.40;;;14.70;99.90;;;;;;2608185;54;20423;-79
2023/05/06 22:52:54;;;;;;;11.03;10.03;;;14.50;99.90;;;;;;2607757;54;20426;-80
2023/05/06 22:58:42;;;;;;;12.00;11.00;;;14.60;99.90;;;;;;2608003;54;20387;-79
2023/05/06 23:04:33;;;;;;;11.97;10.87;;;14.60;99.90;;;;;;2609031;39;20912;-79
2023/05/06 23:10:21;;;;;;;11.90;10.90;;;14.70;99.90;;;;;;2609777;54;21179;-80
2023/05/06 23:16:10;;;;;;;12.87;11.67;;;14.60;99.90;;;;;;2611436;54;20126;-80
2023/05/06 23:21:58;;;;;;;12.47;11.27;;;14.60;99.90;;;;;;2609382;54;20391;-82
2023/05/06 23:27:46;;;;;;;13.17;11.77;;;14.50;99.90;;;;;;2609550;54;20166;-81
2023/05/06 23:33:34;;;;;;;13.23;12.03;;;14.50;99.90;;;;;;2609781;54;20652;-81
2023/05/06 23:39:22;;;;;;;12.80;11.80;;;14.50;99.90;;;;;;2609142;54;20177;-82
2023/05/06 23:45:10;;;;;;;13.70;12.70;;;14.50;99.90;;;;;;2610308;54;20134;-82
2023/05/06 23:48:25;;;;;;;15.10;12.47;;;14.50;99.90;;;;;;2610290;54;21412;-81
2023/05/06 23:50:53;;;;;;;12.57;11.57;;;14.50;99.90;;;;;;2610450;54;20419;-83
2023/05/06 23:56:40;;;;;;;14.17;12.93;;;14.40;99.90;;;;;;2612206;54;20379;-82
